WAT633 LFLL-LIPZ
Flight info
| Callsign | WAT633 |
|---|---|
| Flight time | 1h 2m |
| Altitude | 33000 |
| Route | RISOR T47 GEMLA DCT VANAS DCT MEDAM DCT NITAM DCT MOGBO/N0454F320 DCT EVANO DCT OSKOR DCT ELTAR DCT IDREK DCT ADOSA/N0377F190 L612 ALBET |
| Aircraft | A20N/M-SDE2E3FGHIRWXY/LB1 |
Departure
| Time | 2026-05-04 09:14 |
|---|---|
| Airport | Lyon Saint-Exupéry Airport (LFLL) |
Arrival
| Time | 2026-05-04 10:16 |
|---|---|
| Airport | Venice Marco Polo Airport (LIPZ) |
| Time | Latitude | Longitude | Altitude | Speed | Heading |
|---|---|---|---|---|---|
| 2026-05-04 08:48 | 45.72204 | 5.08197 | 795 ft | 0 kts | 302° |
| 2026-05-04 09:01 | 45.72185 | 5.08240 | 795 ft | 3 kts | 303° |
| 2026-05-04 09:01 | 45.72168 | 5.08256 | 796 ft | 0 kts | 347° |
| 2026-05-04 09:03 | 45.72168 | 5.08255 | 796 ft | 0 kts | 351° |
| 2026-05-04 09:05 | 45.72169 | 5.08255 | 796 ft | 1 kts | 351° |
| 2026-05-04 09:05 | 45.72181 | 5.08252 | 795 ft | 3 kts | 351° |
| 2026-05-04 09:06 | 45.72213 | 5.08263 | 795 ft | 5 kts | 38° |
| 2026-05-04 09:07 | 45.72857 | 5.08350 | 782 ft | 13 kts | 356° |
| 2026-05-04 09:08 | 45.72922 | 5.08342 | 781 ft | 11 kts | 355° |
| 2026-05-04 09:08 | 45.73008 | 5.08331 | 779 ft | 13 kts | 355° |
| 2026-05-04 09:08 | 45.73111 | 5.08321 | 777 ft | 16 kts | 356° |
| 2026-05-04 09:08 | 45.73231 | 5.08304 | 774 ft | 18 kts | 355° |
| 2026-05-04 09:09 | 45.73361 | 5.08290 | 772 ft | 19 kts | 356° |
| 2026-05-04 09:09 | 45.73483 | 5.08279 | 772 ft | 16 kts | 355° |
| 2026-05-04 09:09 | 45.73597 | 5.08258 | 769 ft | 15 kts | 354° |
| 2026-05-04 09:09 | 45.73715 | 5.08241 | 767 ft | 17 kts | 355° |
| 2026-05-04 09:10 | 45.73844 | 5.08227 | 764 ft | 19 kts | 357° |
| 2026-05-04 09:10 | 45.73980 | 5.08213 | 764 ft | 19 kts | 356° |
| 2026-05-04 09:10 | 45.74113 | 5.08240 | 764 ft | 19 kts | 13° |
| 2026-05-04 09:10 | 45.74240 | 5.08284 | 765 ft | 18 kts | 13° |
| 2026-05-04 09:11 | 45.74372 | 5.08329 | 763 ft | 19 kts | 13° |
| 2026-05-04 09:11 | 45.74500 | 5.08373 | 763 ft | 18 kts | 14° |
| 2026-05-04 09:11 | 45.74608 | 5.08416 | 761 ft | 15 kts | 30° |
| 2026-05-04 09:11 | 45.74649 | 5.08551 | 760 ft | 15 kts | 101° |
| 2026-05-04 09:12 | 45.74594 | 5.08601 | 761 ft | 7 kts | 174° |
| 2026-05-04 09:12 | 45.74462 | 5.08622 | 764 ft | 50 kts | 174° |
| 2026-05-04 09:14 | 45.66157 | 5.09600 | 4001 ft | 227 kts | 174° |
| 2026-05-04 09:14 | 45.64596 | 5.09799 | 4925 ft | 228 kts | 174° |
| 2026-05-04 09:14 | 45.63042 | 5.09994 | 5910 ft | 227 kts | 175° |
| 2026-05-04 09:14 | 45.61489 | 5.10360 | 6752 ft | 233 kts | 165° |
| 2026-05-04 09:15 | 45.59958 | 5.11287 | 7332 ft | 251 kts | 151° |
| 2026-05-04 09:15 | 45.58677 | 5.13075 | 8061 ft | 270 kts | 124° |
| 2026-05-04 09:15 | 45.58066 | 5.15570 | 8825 ft | 285 kts | 105° |
| 2026-05-04 09:15 | 45.57757 | 5.18409 | 9594 ft | 295 kts | 102° |
| 2026-05-04 09:17 | 45.53693 | 5.45126 | 14319 ft | 383 kts | 106° |
| 2026-05-04 09:18 | 45.53066 | 5.48841 | 15041 ft | 387 kts | 107° |
| 2026-05-04 09:18 | 45.52428 | 5.52600 | 15752 ft | 391 kts | 107° |
| 2026-05-04 09:18 | 45.51792 | 5.56341 | 16417 ft | 395 kts | 107° |
| 2026-05-04 09:18 | 45.51227 | 5.60186 | 17058 ft | 402 kts | 101° |
| 2026-05-04 09:19 | 45.51013 | 5.64207 | 17719 ft | 408 kts | 92° |
| 2026-05-04 09:19 | 45.51189 | 5.68285 | 18347 ft | 415 kts | 87° |
| 2026-05-04 09:19 | 45.51566 | 5.72408 | 18974 ft | 420 kts | 85° |
| 2026-05-04 09:19 | 45.51979 | 5.76569 | 19584 ft | 423 kts | 85° |
| 2026-05-04 09:20 | 45.52383 | 5.80696 | 20196 ft | 426 kts | 85° |
| 2026-05-04 09:20 | 45.52761 | 5.84653 | 20757 ft | 429 kts | 86° |
| 2026-05-04 09:20 | 45.53160 | 5.88920 | 21348 ft | 432 kts | 85° |
| 2026-05-04 09:20 | 45.53554 | 5.93198 | 21904 ft | 435 kts | 85° |
| 2026-05-04 09:21 | 45.53947 | 5.97472 | 22441 ft | 439 kts | 85° |
| 2026-05-04 09:21 | 45.54349 | 6.01845 | 22973 ft | 442 kts | 85° |
| 2026-05-04 09:21 | 45.54749 | 6.06215 | 23489 ft | 446 kts | 85° |
| 2026-05-04 09:21 | 45.55149 | 6.10588 | 23981 ft | 449 kts | 85° |
| 2026-05-04 09:22 | 45.55553 | 6.15039 | 24497 ft | 452 kts | 85° |
| 2026-05-04 09:22 | 45.55951 | 6.19474 | 24977 ft | 455 kts | 86° |
| 2026-05-04 09:22 | 45.56352 | 6.23965 | 25443 ft | 457 kts | 85° |
| 2026-05-04 09:22 | 45.56742 | 6.28551 | 25910 ft | 459 kts | 89° |
| 2026-05-04 09:23 | 45.56738 | 6.33048 | 26434 ft | 454 kts | 99° |
| 2026-05-04 09:23 | 45.56176 | 6.37485 | 26985 ft | 448 kts | 109° |
| 2026-05-04 09:23 | 45.55154 | 6.41643 | 27460 ft | 446 kts | 115° |
| 2026-05-04 09:23 | 45.53979 | 6.45763 | 27910 ft | 448 kts | 116° |
| 2026-05-04 09:25 | 45.44761 | 6.73421 | 31456 ft | 435 kts | 132° |
| 2026-05-04 09:25 | 45.42777 | 6.76659 | 31741 ft | 435 kts | 138° |
| 2026-05-04 09:26 | 45.40588 | 6.79593 | 32002 ft | 436 kts | 143° |
| 2026-05-04 09:26 | 45.38166 | 6.82263 | 32261 ft | 436 kts | 148° |
| 2026-05-04 09:26 | 45.35700 | 6.84746 | 32522 ft | 438 kts | 148° |
| 2026-05-04 09:26 | 45.33187 | 6.87252 | 32784 ft | 440 kts | 148° |
| 2026-05-04 09:27 | 45.30695 | 6.89737 | 33038 ft | 442 kts | 148° |
| 2026-05-04 09:27 | 45.28196 | 6.92321 | 33078 ft | 444 kts | 146° |
| 2026-05-04 09:27 | 45.23502 | 6.98031 | 33086 ft | 446 kts | 140° |
| 2026-05-04 09:28 | 45.19156 | 7.04023 | 33087 ft | 446 kts | 139° |
| 2026-05-04 09:28 | 45.14735 | 7.10102 | 33081 ft | 445 kts | 139° |
| 2026-05-04 09:29 | 45.10435 | 7.16594 | 32770 ft | 448 kts | 133° |
| 2026-05-04 09:29 | 45.08504 | 7.20037 | 32501 ft | 449 kts | 130° |
| 2026-05-04 09:29 | 45.06678 | 7.23652 | 32237 ft | 450 kts | 128° |
| 2026-05-04 09:30 | 45.04859 | 7.27332 | 32122 ft | 449 kts | 127° |
| 2026-05-04 09:30 | 45.03236 | 7.31089 | 32124 ft | 452 kts | 120° |
| 2026-05-04 09:30 | 45.01191 | 7.39476 | 32123 ft | 456 kts | 103° |
| 2026-05-04 09:31 | 45.00912 | 7.48158 | 32109 ft | 458 kts | 86° |
| 2026-05-04 09:31 | 45.02409 | 7.56871 | 32112 ft | 459 kts | 71° |
| 2026-05-04 09:32 | 45.04703 | 7.65298 | 32103 ft | 459 kts | 71° |
| 2026-05-04 09:34 | 45.13770 | 7.99108 | 32109 ft | 460 kts | 71° |
| 2026-05-04 09:34 | 45.16013 | 8.07610 | 32102 ft | 459 kts | 71° |
| 2026-05-04 09:35 | 45.18191 | 8.15897 | 32104 ft | 459 kts | 71° |
| 2026-05-04 09:35 | 45.20425 | 8.24430 | 32095 ft | 460 kts | 71° |
| 2026-05-04 09:37 | 45.29281 | 8.58551 | 32092 ft | 460 kts | 71° |
| 2026-05-04 09:38 | 45.31484 | 8.67126 | 32096 ft | 460 kts | 72° |
| 2026-05-04 09:38 | 45.33674 | 8.75687 | 32098 ft | 460 kts | 71° |
| 2026-05-04 09:39 | 45.35753 | 8.84281 | 32096 ft | 460 kts | 73° |
| 2026-05-04 09:39 | 45.37759 | 8.92854 | 32098 ft | 460 kts | 73° |
| 2026-05-04 09:40 | 45.39798 | 9.01565 | 32097 ft | 460 kts | 73° |
| 2026-05-04 09:40 | 45.41777 | 9.10031 | 32098 ft | 459 kts | 73° |
| 2026-05-04 09:42 | 45.49807 | 9.44732 | 32102 ft | 459 kts | 73° |
| 2026-05-04 09:43 | 45.51783 | 9.53356 | 32099 ft | 459 kts | 72° |
| 2026-05-04 09:43 | 45.53766 | 9.62040 | 32099 ft | 458 kts | 72° |
| 2026-05-04 09:44 | 45.55737 | 9.70711 | 32099 ft | 458 kts | 73° |
| 2026-05-04 09:46 | 45.63404 | 10.05314 | 32111 ft | 456 kts | 77° |
| 2026-05-04 09:46 | 45.64557 | 10.14200 | 32112 ft | 455 kts | 84° |
| 2026-05-04 09:47 | 45.64845 | 10.18739 | 32003 ft | 452 kts | 88° |
| 2026-05-04 09:47 | 45.64937 | 10.23174 | 31586 ft | 446 kts | 91° |
| 2026-05-04 09:49 | 45.64802 | 10.54021 | 26576 ft | 451 kts | 91° |
| 2026-05-04 09:49 | 45.64781 | 10.58461 | 25779 ft | 452 kts | 91° |
| 2026-05-04 09:49 | 45.64759 | 10.62990 | 25010 ft | 453 kts | 91° |
| 2026-05-04 09:51 | 45.64571 | 10.88934 | 21760 ft | 427 kts | 92° |
| 2026-05-04 09:51 | 45.64537 | 10.93124 | 21236 ft | 423 kts | 92° |
| 2026-05-04 09:51 | 45.64500 | 10.97335 | 20703 ft | 419 kts | 93° |
| 2026-05-04 09:51 | 45.64146 | 11.01414 | 20164 ft | 413 kts | 105° |
| 2026-05-04 09:52 | 45.63201 | 11.05261 | 19624 ft | 407 kts | 117° |
| 2026-05-04 09:52 | 45.61801 | 11.08719 | 19095 ft | 401 kts | 124° |
| 2026-05-04 09:52 | 45.60305 | 11.11995 | 18556 ft | 397 kts | 125° |
| 2026-05-04 09:52 | 45.58799 | 11.15271 | 18024 ft | 394 kts | 125° |
| 2026-05-04 09:53 | 45.57314 | 11.18542 | 17501 ft | 391 kts | 124° |
| 2026-05-04 09:53 | 45.55851 | 11.21777 | 16952 ft | 388 kts | 124° |
| 2026-05-04 09:53 | 45.54411 | 11.24972 | 16404 ft | 385 kts | 124° |
| 2026-05-04 09:53 | 45.52971 | 11.28163 | 15858 ft | 382 kts | 124° |
| 2026-05-04 09:54 | 45.51535 | 11.31345 | 15320 ft | 379 kts | 125° |
| 2026-05-04 09:54 | 45.50110 | 11.34499 | 14794 ft | 377 kts | 125° |
| 2026-05-04 09:54 | 45.48708 | 11.37598 | 14229 ft | 374 kts | 125° |
| 2026-05-04 09:54 | 45.47354 | 11.40588 | 13811 ft | 368 kts | 125° |
| 2026-05-04 09:55 | 45.45982 | 11.43615 | 13588 ft | 359 kts | 125° |
| 2026-05-04 09:55 | 45.44640 | 11.46569 | 13377 ft | 354 kts | 125° |
| 2026-05-04 09:55 | 45.43298 | 11.49470 | 13133 ft | 347 kts | 127° |
| 2026-05-04 09:55 | 45.41864 | 11.52142 | 12966 ft | 331 kts | 132° |
| 2026-05-04 09:56 | 45.40370 | 11.54564 | 12979 ft | 321 kts | 134° |
| 2026-05-04 09:56 | 45.38889 | 11.56905 | 13029 ft | 321 kts | 134° |
| 2026-05-04 09:56 | 45.37407 | 11.59240 | 12947 ft | 322 kts | 133° |
| 2026-05-04 09:56 | 45.35988 | 11.61482 | 12500 ft | 322 kts | 133° |
| 2026-05-04 09:57 | 45.34754 | 11.64093 | 12027 ft | 324 kts | 113° |
| 2026-05-04 09:57 | 45.34338 | 11.67228 | 11593 ft | 325 kts | 91° |
| 2026-05-04 09:57 | 45.34481 | 11.70413 | 11201 ft | 323 kts | 87° |
| 2026-05-04 09:57 | 45.34661 | 11.73585 | 10790 ft | 321 kts | 87° |
| 2026-05-04 09:58 | 45.34827 | 11.76765 | 10380 ft | 318 kts | 87° |
| 2026-05-04 09:58 | 45.34976 | 11.79827 | 10196 ft | 307 kts | 87° |
| 2026-05-04 09:58 | 45.34997 | 11.82775 | 10078 ft | 293 kts | 101° |
| 2026-05-04 10:00 | 45.25444 | 11.87482 | 9070 ft | 256 kts | 222° |
| 2026-05-04 10:00 | 45.24117 | 11.85763 | 9081 ft | 257 kts | 222° |
| 2026-05-04 10:02 | 45.14764 | 11.73987 | 9088 ft | 257 kts | 221° |
| 2026-05-04 10:04 | 45.06470 | 11.77836 | 9049 ft | 243 kts | 87° |
| 2026-05-04 10:04 | 45.07029 | 11.80093 | 8744 ft | 248 kts | 52° |
| 2026-05-04 10:04 | 45.08279 | 11.81730 | 8443 ft | 246 kts | 39° |
| 2026-05-04 10:04 | 45.09608 | 11.83290 | 8139 ft | 244 kts | 40° |
| 2026-05-04 10:05 | 45.10881 | 11.84834 | 7852 ft | 242 kts | 41° |
| 2026-05-04 10:05 | 45.12153 | 11.86408 | 7574 ft | 240 kts | 41° |
| 2026-05-04 10:05 | 45.13408 | 11.87976 | 7302 ft | 238 kts | 42° |
| 2026-05-04 10:05 | 45.14628 | 11.89507 | 7029 ft | 236 kts | 42° |
| 2026-05-04 10:06 | 45.15845 | 11.91039 | 6774 ft | 233 kts | 42° |
| 2026-05-04 10:06 | 45.17059 | 11.92565 | 6514 ft | 232 kts | 42° |
| 2026-05-04 10:06 | 45.18265 | 11.94083 | 6236 ft | 231 kts | 42° |
| 2026-05-04 10:08 | 45.25450 | 12.02870 | 4673 ft | 223 kts | 41° |
| 2026-05-04 10:08 | 45.26619 | 12.04319 | 4433 ft | 221 kts | 41° |
| 2026-05-04 10:08 | 45.27761 | 12.05765 | 4236 ft | 218 kts | 42° |
| 2026-05-04 10:08 | 45.28869 | 12.07190 | 4058 ft | 214 kts | 42° |
| 2026-05-04 10:09 | 45.29968 | 12.08614 | 3886 ft | 210 kts | 43° |
| 2026-05-04 10:09 | 45.31031 | 12.09999 | 3730 ft | 208 kts | 42° |
| 2026-05-04 10:09 | 45.32108 | 12.11405 | 3563 ft | 207 kts | 43° |
| 2026-05-04 10:09 | 45.33170 | 12.12789 | 3394 ft | 208 kts | 43° |
| 2026-05-04 10:10 | 45.34283 | 12.14237 | 3414 ft | 224 kts | 42° |
| 2026-05-04 10:10 | 45.35448 | 12.15752 | 3413 ft | 225 kts | 42° |
| 2026-05-04 10:10 | 45.36591 | 12.17232 | 3261 ft | 218 kts | 43° |
| 2026-05-04 10:10 | 45.37714 | 12.18685 | 3002 ft | 216 kts | 43° |
| 2026-05-04 10:11 | 45.38803 | 12.20092 | 2791 ft | 206 kts | 43° |
| 2026-05-04 10:11 | 45.39830 | 12.21418 | 2492 ft | 193 kts | 42° |
| 2026-05-04 10:11 | 45.40807 | 12.22679 | 2213 ft | 183 kts | 42° |
| 2026-05-04 10:11 | 45.41718 | 12.23854 | 1979 ft | 172 kts | 41° |
| 2026-05-04 10:12 | 45.42585 | 12.24974 | 1749 ft | 162 kts | 41° |
| 2026-05-04 10:12 | 45.43389 | 12.26009 | 1540 ft | 148 kts | 42° |
| 2026-05-04 10:12 | 45.44124 | 12.26956 | 1341 ft | 138 kts | 42° |
| 2026-05-04 10:12 | 45.44835 | 12.27871 | 1182 ft | 137 kts | 43° |
| 2026-05-04 10:13 | 45.45524 | 12.28759 | 1021 ft | 136 kts | 43° |
| 2026-05-04 10:13 | 45.46220 | 12.29655 | 850 ft | 134 kts | 43° |
| 2026-05-04 10:13 | 45.46907 | 12.30541 | 679 ft | 132 kts | 43° |
| 2026-05-04 10:13 | 45.47593 | 12.31427 | 497 ft | 131 kts | 43° |
| 2026-05-04 10:14 | 45.48268 | 12.32300 | 307 ft | 129 kts | 44° |
| 2026-05-04 10:14 | 45.48935 | 12.33144 | 182 ft | 128 kts | 43° |
| 2026-05-04 10:16 | 45.50964 | 12.35261 | 10 ft | 10 kts | 259° |
| 2026-05-04 10:16 | 45.50922 | 12.35170 | 9 ft | 12 kts | 217° |
| 2026-05-04 10:16 | 45.50853 | 12.35083 | 9 ft | 13 kts | 223° |
| 2026-05-04 10:16 | 45.50781 | 12.34989 | 9 ft | 14 kts | 221° |
| 2026-05-04 10:17 | 45.50696 | 12.34883 | 6 ft | 17 kts | 220° |
| 2026-05-04 10:17 | 45.50627 | 12.34790 | 6 ft | 11 kts | 232° |
| 2026-05-04 10:19 | 45.50661 | 12.34301 | 9 ft | 7 kts | 333° |
| 2026-05-04 10:19 | 45.50700 | 12.34249 | 9 ft | 8 kts | 313° |
| 2026-05-04 10:19 | 45.50742 | 12.34179 | 9 ft | 9 kts | 308° |
| 2026-05-04 10:19 | 45.50781 | 12.34090 | 9 ft | 8 kts | 291° |
| 2026-05-04 10:20 | 45.50803 | 12.34031 | 9 ft | 5 kts | 298° |
| 2026-05-04 10:20 | 45.50795 | 12.33987 | 9 ft | 4 kts | 228° |
| 2026-05-04 10:20 | 45.50779 | 12.33967 | 9 ft | 0 kts | 224° |